Time;durP1;ratioP1;P1;durP2;ratioP2;P2;SDS_P1;SDS_P2;PMS_P1;PMS_P2;Temp;Humidity;BMP_temperature;BMP_pressure;BME280_temperature;BME280_humidity;BME280_pressure;Samples;Min_cycle;Max_cycle;Signal;HPM_P1;HPM_P2
2024/02/27 07:41:05;;;;;;;38.08;18.20;;;;;;;5.51;91.13;95992.19;2093410;27;20547;-67
2024/02/27 07:56:59;;;;;;;34.67;16.98;;;;;;;5.90;88.53;96019.31;2081150;28;21529;-66
2024/02/27 08:00:01;;;;;;;34.05;17.55;;;;;;;6.14;87.86;96020.19;2090224;28;21059;-66
2024/02/27 08:02:42;;;;;;;38.28;17.50;;;;;;;6.20;86.72;96003.59;2083959;28;20573;-68
2024/02/27 08:03:43;;;;;;;34.70;16.33;;;;;;;6.32;86.85;96015.22;2076787;28;20321;-68
2024/02/27 08:06:27;;;;;;;31.00;15.98;;;;;;;6.49;86.18;96022.41;2081936;28;20576;-66
2024/02/27 08:09:06;;;;;;;31.10;14.90;;;;;;;6.53;85.56;96035.16;2091275;28;20567;-66
2024/02/27 08:11:47;;;;;;;26.38;14.65;;;;;;;6.34;85.95;96019.47;2083050;28;21099;-67
2024/02/27 08:56:12;;;;;;;29.33;15.80;;;;;;;6.89;83.98;96007.84;2101016;27;20553;-68
2024/02/27 08:58:21;;;;;;;32.90;16.00;;;;;;;7.15;83.61;96042.31;2086612;28;20570;-68
2024/02/27 08:59:23;;;;;;;32.30;17.50;;;;;;;7.17;83.15;96040.47;2079480;28;20252;-68
2024/02/27 09:00:25;;;;;;;38.85;17.83;;;;;;;7.33;83.11;96046.72;2080328;28;20198;-68
2024/02/27 09:01:27;;;;;;;30.20;16.48;;;;;;;7.53;82.37;96052.88;2078292;28;20202;-68
2024/02/27 09:02:29;;;;;;;31.20;16.40;;;;;;;7.65;81.96;96051.50;2072224;28;20206;-68
2024/02/27 09:03:31;;;;;;;31.25;16.30;;;;;;;7.43;82.04;96047.19;2073026;28;20653;-68
2024/02/27 09:04:32;;;;;;;32.72;16.15;;;;;;;7.80;81.58;96056.03;2073989;28;20704;-68
2024/02/27 09:05:34;;;;;;;28.33;17.52;;;;;;;7.98;80.55;96056.97;2072489;28;20539;-68
2024/02/27 09:06:41;;;;;;;32.33;17.08;;;;;;;8.21;79.62;96028.28;2071774;28;20325;-68
2024/02/27 09:07:43;;;;;;;35.25;16.65;;;;;;;8.77;79.10;96052.63;2072516;28;20276;-68
2024/02/27 09:08:44;;;;;;;24.67;15.45;;;;;;;8.87;77.78;96038.25;2074432;28;20698;-67
2024/02/27 09:09:46;;;;;;;27.95;16.20;;;;;;;9.06;77.54;96053.00;2074271;28;20241;-67
2024/02/27 09:10:47;;;;;;;28.27;15.98;;;;;;;9.09;77.02;96048.50;2073904;28;20208;-67
2024/02/27 09:11:49;;;;;;;26.00;16.33;;;;;;;9.04;76.47;96066.13;2071944;28;20228;-67
2024/02/27 09:12:50;;;;;;;27.67;16.70;;;;;;;9.17;76.20;96052.47;2074195;28;20700;-67
2024/02/27 09:13:52;;;;;;;25.35;15.30;;;;;;;9.45;75.94;96067.63;2071988;28;20285;-67
2024/02/27 09:14:53;;;;;;;30.35;15.35;;;;;;;9.69;75.69;96067.31;2072345;28;20296;-67
2024/02/27 09:15:55;;;;;;;25.10;15.73;;;;;;;9.76;74.67;96064.34;2071693;28;20193;-67
2024/02/27 09:16:57;;;;;;;30.55;15.43;;;;;;;9.85;74.31;96057.78;2075043;28;20221;-67
2024/02/27 09:17:58;;;;;;;24.80;14.73;;;;;;;9.88;74.05;96062.84;2073092;28;20268;-67
2024/02/27 09:19:00;;;;;;;29.38;15.70;;;;;;;9.94;73.41;96052.13;2072003;28;20209;-67
2024/02/27 09:20:03;;;;;;;25.90;15.77;;;;;;;10.13;73.03;96062.44;2071592;28;20634;-67
2024/02/27 09:21:05;;;;;;;25.52;15.50;;;;;;;10.22;72.70;96057.66;2070092;28;20237;-67
2024/02/27 09:22:07;;;;;;;30.23;16.35;;;;;;;10.08;72.86;96055.75;2073253;28;20243;-67
2024/02/27 09:23:08;;;;;;;25.80;14.93;;;;;;;10.12;73.00;96063.34;2074504;28;20653;-67
2024/02/27 09:24:10;;;;;;;28.33;16.35;;;;;;;10.28;71.82;96059.94;2072472;28;20656;-67
2024/02/27 09:25:13;;;;;;;39.95;17.08;;;;;;;10.22;72.35;96060.25;2074267;28;20202;-67
2024/02/27 09:26:14;;;;;;;25.83;15.57;;;;;;;10.32;72.13;96058.00;2073229;28;20684;-63
2024/02/27 09:27:16;;;;;;;27.20;15.02;;;;;;;10.36;72.23;96063.03;2070608;28;20233;-64
2024/02/27 09:28:18;;;;;;;25.10;15.52;;;;;;;10.23;72.54;96062.81;2071267;28;20190;-64
2024/02/27 09:29:19;;;;;;;28.83;16.45;;;;;;;10.20;71.94;96062.94;2070711;28;20199;-64
2024/02/27 09:30:22;;;;;;;30.48;16.45;;;;;;;10.12;72.58;96065.13;2070071;28;20394;-64
2024/02/27 09:31:24;;;;;;;33.03;16.55;;;;;;;10.11;72.83;96066.06;2069909;28;20252;-64
2024/02/27 09:32:32;;;;;;;29.63;16.77;;;;;;;10.21;72.25;96053.34;2073643;28;20206;-65
2024/02/27 09:33:34;;;;;;;26.30;15.60;;;;;;;10.76;70.86;96055.63;2074257;28;20233;-64
2024/02/27 09:34:36;;;;;;;35.28;16.75;;;;;;;11.08;69.93;96049.56;2070030;28;20209;-64
2024/02/27 09:35:37;;;;;;;25.95;14.88;;;;;;;11.04;70.28;96056.72;2073952;28;20252;-64
2024/02/27 09:36:39;;;;;;;28.48;16.27;;;;;;;10.74;70.48;96049.69;2073857;28;20209;-63
2024/02/27 09:37:41;;;;;;;25.98;15.20;;;;;;;11.23;70.20;96048.69;2074094;28;20225;-64
2024/02/27 09:38:42;;;;;;;29.42;16.70;;;;;;;12.29;67.32;96048.69;2074688;28;20965;-64
2024/02/27 09:39:44;;;;;;;30.60;15.68;;;;;;;13.50;63.91;96043.72;2073440;28;20202;-64
2024/02/27 09:41:00;;;;;;;25.85;15.07;;;;;;;13.76;63.10;96028.84;2073142;28;20224;-64
2024/02/27 09:42:11;;;;;;;24.52;14.60;;;;;;;14.26;61.61;96051.78;2072520;28;20222;-64
2024/02/27 09:43:22;;;;;;;30.27;15.85;;;;;;;14.84;59.82;96046.88;2072139;28;20209;-65
2024/02/27 09:44:24;;;;;;;33.47;15.45;;;;;;;14.52;60.36;96045.56;2073409;28;20636;-64
2024/02/27 09:45:26;;;;;;;24.45;14.07;;;;;;;14.68;60.26;96045.34;2072807;28;20216;-64
2024/02/27 09:46:28;;;;;;;22.85;14.00;;;;;;;14.56;59.91;96045.34;2060802;28;20198;-64
2024/02/27 09:47:34;;;;;;;32.67;15.48;;;;;;;13.61;61.50;96050.88;2073503;28;20182;-64
2024/02/27 09:48:43;;;;;;;25.20;15.00;;;;;;;13.58;62.33;96046.69;2077263;28;20645;-64
2024/02/27 09:49:47;;;;;;;22.80;14.43;;;;;;;12.97;63.21;96041.00;2077151;28;20240;-65
2024/02/27 09:50:51;;;;;;;24.00;14.88;;;;;;;13.01;63.53;96045.09;2072893;28;20281;-64
2024/02/27 09:51:56;;;;;;;24.42;14.57;;;;;;;13.03;63.52;96062.41;2072239;28;20592;-64
2024/02/27 09:52:58;;;;;;;30.38;15.30;;;;;;;12.87;63.51;96064.31;2074846;28;20225;-64
2024/02/27 09:54:00;;;;;;;24.75;15.23;;;;;;;12.70;64.08;96063.59;2074532;28;20281;-64
2024/02/27 09:55:02;;;;;;;25.83;15.75;;;;;;;12.46;64.29;96065.97;2073154;28;20538;-65
2024/02/27 09:56:04;;;;;;;25.75;15.88;;;;;;;12.38;64.54;96061.19;2072596;28;20194;-64
2024/02/27 09:57:06;;;;;;;27.13;15.95;;;;;;;12.45;64.78;96064.28;2072341;28;20326;-65
2024/02/27 09:58:10;;;;;;;28.90;15.15;;;;;;;12.39;64.70;96060.28;2073201;28;20744;-64
2024/02/27 09:59:12;;;;;;;27.90;16.20;;;;;;;12.31;64.61;96065.13;2072846;28;20672;-65
2024/02/27 10:00:19;;;;;;;25.20;15.30;;;;;;;12.07;65.29;96070.06;2073437;28;20198;-64
2024/02/27 10:01:22;;;;;;;24.02;14.57;;;;;;;11.87;66.06;96074.69;2073782;28;20285;-64
2024/02/27 10:02:24;;;;;;;24.35;14.70;;;;;;;11.41;66.85;96074.72;2072619;28;20229;-64
2024/02/27 10:03:26;;;;;;;23.63;15.18;;;;;;;11.24;67.90;96073.91;2074082;28;20209;-65
2024/02/27 10:04:28;;;;;;;26.70;15.75;;;;;;;11.19;68.30;96081.16;2073196;28;20189;-64
2024/02/27 10:05:32;;;;;;;28.15;17.02;;;;;;;10.85;69.41;96076.97;2071611;28;20653;-64
2024/02/27 10:06:33;;;;;;;25.73;15.65;;;;;;;10.42;70.93;96075.75;2073035;28;20277;-64
2024/02/27 10:07:38;;;;;;;27.65;17.15;;;;;;;10.28;70.83;96075.59;2073907;28;20198;-64
2024/02/27 10:08:46;;;;;;;30.20;15.50;;;;;;;10.06;71.40;96075.88;2073021;28;20214;-64
2024/02/27 10:09:47;;;;;;;28.33;17.50;;;;;;;9.56;72.58;96072.28;2066077;28;20203;-64
2024/02/27 10:10:49;;;;;;;33.47;16.25;;;;;;;9.62;73.47;96078.06;2068401;28;20251;-64
2024/02/27 10:11:50;;;;;;;35.45;18.58;;;;;;;9.80;72.82;96075.44;2066462;28;20260;-65
2024/02/27 10:12:52;;;;;;;25.83;16.05;;;;;;;9.78;72.80;96075.50;2065083;28;20203;-64
2024/02/27 10:13:54;;;;;;;30.13;16.52;;;;;;;9.88;72.65;96083.72;2071268;28;20336;-64
2024/02/27 10:14:55;;;;;;;29.38;16.58;;;;;;;9.70;72.95;96058.56;2067849;28;20198;-65
2024/02/27 10:15:59;;;;;;;28.33;17.00;;;;;;;9.76;73.09;96077.38;2066578;28;20663;-64
2024/02/27 10:17:03;;;;;;;32.22;17.17;;;;;;;9.41;73.19;96066.09;2066438;28;20287;-64
2024/02/27 10:18:05;;;;;;;32.13;18.08;;;;;;;9.32;74.21;96068.22;2064192;28;20605;-64
2024/02/27 10:19:07;;;;;;;29.73;17.70;;;;;;;9.45;74.21;96078.06;2067382;28;20202;-64
2024/02/27 10:20:13;;;;;;;29.55;16.60;;;;;;;9.37;74.03;96074.97;2064540;28;20230;-64
2024/02/27 10:21:17;;;;;;;27.20;15.90;;;;;;;9.37;74.50;96082.78;2065085;28;20231;-64
2024/02/27 10:22:19;;;;;;;32.47;18.95;;;;;;;9.17;74.96;96066.38;2067433;28;20709;-64
2024/02/27 10:23:21;;;;;;;31.70;17.38;;;;;;;8.97;76.04;96081.16;2073572;28;20194;-64
2024/02/27 10:24:25;;;;;;;29.17;17.38;;;;;;;9.11;75.51;96082.28;2073234;28;20596;-64
2024/02/27 10:25:29;;;;;;;28.17;16.67;;;;;;;9.14;75.71;96071.72;2069253;28;20646;-65
2024/02/27 10:26:31;;;;;;;30.55;17.50;;;;;;;9.13;75.45;96051.81;2069853;28;20685;-64
2024/02/27 10:27:37;;;;;;;29.77;16.55;;;;;;;9.24;75.25;96090.34;2066458;28;20216;-64
2024/02/27 10:28:39;;;;;;;33.83;19.40;;;;;;;9.13;75.69;96086.50;2067361;28;20190;-64
2024/02/27 10:29:41;;;;;;;29.13;17.77;;;;;;;9.17;75.64;96086.34;2067272;28;20725;-64
2024/02/27 10:30:45;;;;;;;40.55;18.23;;;;;;;9.34;75.32;96090.75;2067003;28;20194;-64
2024/02/27 10:31:47;;;;;;;29.70;17.17;;;;;;;9.24;75.24;96082.53;2065783;28;20271;-64
2024/02/27 10:32:49;;;;;;;29.55;17.80;;;;;;;9.10;75.23;96080.59;2064317;28;20566;-64
2024/02/27 10:33:51;;;;;;;33.42;19.52;;;;;;;9.24;75.33;96100.78;2065756;28;20194;-64
2024/02/27 10:34:54;;;;;;;32.85;18.98;;;;;;;9.17;75.30;96092.41;2067943;28;20233;-64
2024/02/27 10:35:56;;;;;;;30.58;17.80;;;;;;;9.19;75.63;96097.56;2066294;28;20226;-64
2024/02/27 10:37:09;;;;;;;33.53;18.45;;;;;;;9.32;75.79;96091.69;2067474;28;20217;-65
2024/02/27 10:41:47;;;;;;;36.38;19.20;;;;;;;9.07;75.72;96101.59;2083484;28;20919;-63
2024/02/27 10:42:48;;;;;;;33.97;18.83;;;;;;;9.03;76.11;96085.25;2082196;28;20704;-63
2024/02/27 10:43:50;;;;;;;38.03;18.65;;;;;;;8.92;76.34;96072.72;2081789;28;20194;-63
2024/02/27 10:44:51;;;;;;;36.63;20.27;;;;;;;9.18;76.17;96088.91;2083112;28;20189;-63
2024/02/27 10:45:54;;;;;;;28.23;18.20;;;;;;;9.23;76.03;96099.94;2082221;28;20201;-63
2024/02/27 10:49:41;;;;;;;27.58;16.98;;;;;;;9.10;76.89;96097.09;2103728;27;21060;-63
2024/02/27 10:50:43;;;;;;;34.33;18.98;;;;;;;9.14;76.11;96098.63;2100975;28;20216;-63
2024/02/27 10:51:45;;;;;;;39.58;19.02;;;;;;;9.28;76.30;96091.88;2096368;28;20255;-63
2024/02/27 10:55:03;;;;;;;31.15;18.50;;;;;;;9.26;76.21;96099.78;2092410;27;20560;-65
2024/02/27 10:56:06;;;;;;;45.30;21.27;;;;;;;9.23;76.32;96102.53;2088254;28;20201;-63
2024/02/27 10:57:08;;;;;;;34.17;18.38;;;;;;;9.20;75.76;96087.03;2076989;28;20248;-63
2024/02/27 10:58:11;;;;;;;31.90;17.90;;;;;;;9.12;76.12;96097.84;2074282;28;20567;-64
2024/02/27 10:59:13;;;;;;;33.47;18.42;;;;;;;9.23;76.05;96086.91;2073985;28;20256;-63
2024/02/27 11:00:15;;;;;;;35.67;18.75;;;;;;;8.95;76.54;96087.38;2072525;28;20895;-64
2024/02/27 11:01:17;;;;;;;28.85;17.45;;;;;;;8.99;76.77;96089.75;2073810;28;20235;-64
2024/02/27 11:02:20;;;;;;;30.27;18.77;;;;;;;9.11;76.20;96088.31;2062981;28;20234;-63
2024/02/27 11:03:21;;;;;;;41.05;19.90;;;;;;;9.13;76.44;96089.09;2057833;28;20195;-64
2024/02/27 11:04:25;;;;;;;32.53;18.20;;;;;;;9.37;76.26;96090.59;2064064;28;20210;-64
2024/02/27 11:05:29;;;;;;;32.75;18.27;;;;;;;9.48;75.41;96086.56;2073204;28;20286;-64
2024/02/27 11:06:32;;;;;;;33.40;19.15;;;;;;;9.60;74.93;96081.66;2069703;28;20202;-63
2024/02/27 11:07:34;;;;;;;31.48;18.42;;;;;;;9.42;75.19;96084.25;2070279;28;20285;-63
2024/02/27 11:08:36;;;;;;;33.35;19.63;;;;;;;9.28;75.59;96066.69;2071906;28;20202;-63
2024/02/27 11:09:40;;;;;;;33.65;18.42;;;;;;;9.38;75.74;96071.44;2070813;28;20277;-63
2024/02/27 11:10:42;;;;;;;32.85;17.52;;;;;;;9.52;75.21;96082.03;2065439;28;20321;-63
2024/02/27 11:11:47;;;;;;;31.90;18.17;;;;;;;9.51;74.99;96074.28;2064700;28;20728;-63
2024/02/27 11:12:52;;;;;;;34.05;18.75;;;;;;;9.10;76.14;96070.19;2071859;28;20762;-63
2024/02/27 11:13:55;;;;;;;30.98;19.75;;;;;;;9.41;75.85;96077.34;2072574;28;20281;-62
2024/02/27 11:15:03;;;;;;;33.88;16.50;;;;;;;9.70;74.63;96071.59;2073540;28;20263;-63
2024/02/27 11:16:08;;;;;;;31.00;17.50;;;;;;;9.73;74.51;96080.13;2074066;28;20202;-63
2024/02/27 11:17:15;;;;;;;31.55;17.85;;;;;;;9.75;74.44;96086.13;2072913;28;20222;-63
2024/02/27 11:18:22;;;;;;;30.90;18.77;;;;;;;9.73;74.71;96087.09;2072402;28;20194;-63
2024/02/27 11:19:26;;;;;;;30.13;17.20;;;;;;;9.38;75.20;96069.66;2075627;28;20202;-63
2024/02/27 11:20:31;;;;;;;35.42;18.88;;;;;;;9.62;75.03;96090.25;2064892;28;20199;-63
2024/02/27 11:21:35;;;;;;;32.05;18.23;;;;;;;9.75;74.73;96087.84;2064294;28;20725;-63
2024/02/27 11:22:39;;;;;;;43.17;17.20;;;;;;;9.77;74.38;96092.06;2070187;28;20317;-64
2024/02/27 11:23:41;;;;;;;29.33;17.83;;;;;;;9.66;74.90;96086.56;2071747;28;20602;-64
2024/02/27 11:24:44;;;;;;;33.72;18.00;;;;;;;9.75;74.97;96096.53;2074747;28;20206;-63
2024/02/27 11:25:46;;;;;;;27.88;16.50;;;;;;;9.78;74.82;96092.94;2074846;28;20198;-64
2024/02/27 11:26:48;;;;;;;35.13;18.45;;;;;;;9.59;74.92;96093.84;2073323;28;20392;-63
2024/02/27 11:27:52;;;;;;;34.88;18.40;;;;;;;9.22;75.78;96095.66;2075244;28;20194;-64
2024/02/27 11:28:54;;;;;;;36.78;18.88;;;;;;;9.62;75.68;96091.09;2073710;28;20198;-63
2024/02/27 11:29:57;;;;;;;40.13;18.95;;;;;;;9.73;75.28;96079.28;2071861;28;20198;-64
2024/02/27 11:32:14;;;;;;;30.30;17.77;;;;;;;9.07;76.53;96094.59;2077297;28;20572;-64
2024/02/27 11:33:20;;;;;;;30.95;18.25;;;;;;;9.35;76.62;96101.09;2074029;28;20204;-63
2024/02/27 11:34:23;;;;;;;28.67;17.75;;;;;;;9.60;76.03;96098.13;2076164;28;20306;-63
2024/02/27 11:36:39;;;;;;;32.75;17.83;;;;;;;9.58;75.64;96106.97;2083817;28;20550;-63
2024/02/27 11:37:41;;;;;;;30.63;18.90;;;;;;;9.71;75.69;96108.03;2080846;28;20323;-65
2024/02/27 11:39:52;;;;;;;31.20;17.75;;;;;;;10.10;74.33;96104.31;2101090;27;21031;-63
2024/02/27 11:50:34;;;;;;;33.50;18.10;;;;;;;9.67;75.51;96103.88;2085151;27;20558;-63
2024/02/27 11:52:59;;;;;;;34.15;16.80;;;;;;;9.85;75.03;96098.69;2084371;28;20576;-63
2024/02/27 12:12:37;;;;;;;36.35;19.20;;;;;;;8.77;77.69;96109.91;2084924;28;20577;-68
2024/02/27 13:05:11;;;;;;;34.33;20.35;;;;;;;8.80;79.55;96075.94;2092535;27;20563;-60
2024/02/27 13:08:35;;;;;;;38.20;20.67;;;;;;;8.71;79.69;96074.59;2089336;28;20555;-61
2024/02/27 13:12:16;;;;;;;69.15;34.30;;;;;;;8.72;79.34;96054.59;2071951;27;20564;-62
2024/02/27 13:19:33;;;;;;;40.10;20.17;;;;;;;8.74;79.46;96076.22;2100659;27;20607;-64
2024/02/27 13:23:14;;;;;;;43.08;20.75;;;;;;;8.61;79.74;96060.31;2082437;28;20565;-62
2024/02/27 13:26:45;;;;;;;33.80;19.55;;;;;;;8.84;80.11;96064.44;2082614;28;20556;-62
2024/02/27 13:30:20;;;;;;;37.22;19.40;;;;;;;9.11;79.56;96072.69;2084004;28;20551;-62
2024/02/27 13:33:49;;;;;;;46.22;22.05;;;;;;;9.13;79.27;96064.84;2100116;27;20499;-64
2024/02/27 13:36:52;;;;;;;36.38;18.77;;;;;;;9.35;78.50;96061.19;2079575;28;20552;-65
2024/02/27 13:37:54;;;;;;;35.70;20.42;;;;;;;9.44;77.90;96061.56;2080600;28;20193;-64
2024/02/27 13:40:44;;;;;;;33.72;18.58;;;;;;;9.34;78.15;96064.69;2107241;27;20544;-64
2024/02/27 13:41:50;;;;;;;33.92;18.40;;;;;;;9.44;77.44;96068.53;2107267;28;20198;-64
2024/02/27 13:42:52;;;;;;;37.17;18.63;;;;;;;9.36;77.52;96066.31;2102485;28;20736;-64
2024/02/27 13:45:53;;;;;;;41.97;21.08;;;;;;;9.09;78.30;96063.28;2077794;28;20566;-65
2024/02/27 13:46:54;;;;;;;43.35;18.90;;;;;;;9.27;77.69;96062.41;2075992;28;20224;-63
2024/02/27 13:49:56;;;;;;;37.72;17.63;;;;;;;9.22;77.67;96059.16;2092038;28;20579;-64
2024/02/27 13:52:54;;;;;;;33.22;19.00;;;;;;;9.46;76.87;96045.88;2083759;28;21253;-65
2024/02/27 13:55:52;;;;;;;32.47;18.20;;;;;;;9.57;76.18;96056.59;2108286;27;20675;-64
2024/02/27 13:56:57;;;;;;;37.42;19.92;;;;;;;9.45;76.41;96058.03;2095645;27;20223;-64
2024/02/27 13:57:58;;;;;;;34.50;19.70;;;;;;;9.40;76.46;96049.59;2087972;28;20663;-69
2024/02/27 13:58:59;;;;;;;31.55;17.60;;;;;;;9.59;75.89;96051.31;2095753;28;20298;-67
2024/02/27 14:00:03;;;;;;;34.92;18.75;;;;;;;9.39;75.93;96049.69;2096559;28;20222;-67
2024/02/27 14:01:04;;;;;;;34.00;19.30;;;;;;;9.20;75.91;96053.19;2088568;28;20280;-67
2024/02/27 14:02:06;;;;;;;33.63;19.55;;;;;;;9.41;75.88;96040.88;2083990;28;20245;-67
2024/02/27 14:03:08;;;;;;;42.45;19.33;;;;;;;9.48;75.65;96033.59;2086717;28;20207;-67
2024/02/27 14:04:10;;;;;;;31.08;18.80;;;;;;;9.67;75.26;96023.06;2087676;28;20621;-67
2024/02/27 14:05:12;;;;;;;29.70;18.02;;;;;;;9.73;74.58;96048.00;2086426;28;20203;-67
2024/02/27 14:06:15;;;;;;;35.17;18.15;;;;;;;9.91;74.62;96047.03;2077591;28;20203;-68
2024/02/27 14:07:17;;;;;;;39.58;18.85;;;;;;;9.64;74.46;96033.66;2082284;28;20232;-68
2024/02/27 14:08:18;;;;;;;33.47;17.92;;;;;;;9.99;74.50;96041.44;2072364;28;20234;-64
2024/02/27 14:09:20;;;;;;;29.10;17.40;;;;;;;10.23;73.90;96047.16;2085370;28;20257;-64
2024/02/27 14:10:21;;;;;;;39.22;19.48;;;;;;;10.58;72.76;96041.00;2084048;28;20196;-64
2024/02/27 14:11:25;;;;;;;30.23;17.65;;;;;;;10.93;71.75;96038.19;2085721;28;20273;-64
2024/02/27 14:12:27;;;;;;;34.38;18.63;;;;;;;11.33;70.60;96038.56;2072308;28;20230;-64
2024/02/27 14:13:29;;;;;;;32.53;18.48;;;;;;;11.30;70.51;96032.66;2074558;28;20211;-64
2024/02/27 14:14:30;;;;;;;32.72;19.40;;;;;;;11.29;70.52;96018.75;2077233;28;20204;-64
2024/02/27 14:15:32;;;;;;;32.25;18.13;;;;;;;11.56;69.88;96046.84;2079617;28;20219;-63
2024/02/27 14:16:34;;;;;;;34.00;18.40;;;;;;;11.33;71.10;96041.19;2074647;28;20235;-63
2024/02/27 14:17:35;;;;;;;32.67;17.65;;;;;;;11.53;70.23;96047.88;2076849;28;20555;-62
2024/02/27 14:18:37;;;;;;;43.22;18.85;;;;;;;11.50;70.02;96034.97;2080105;28;20789;-63
2024/02/27 14:19:40;;;;;;;34.22;17.75;;;;;;;11.39;69.88;96047.84;2081854;28;20199;-62
2024/02/27 14:20:42;;;;;;;32.08;17.63;;;;;;;11.51;69.75;96044.50;2081196;28;20270;-62
2024/02/27 14:21:44;;;;;;;33.92;17.65;;;;;;;11.54;69.84;96048.72;2079146;28;20224;-62
2024/02/27 14:22:46;;;;;;;32.53;19.00;;;;;;;11.18;69.87;96045.50;2080092;28;20200;-62
2024/02/27 14:23:48;;;;;;;31.27;17.40;;;;;;;11.22;70.16;96046.16;2078719;28;20202;-63
2024/02/27 14:24:49;;;;;;;39.28;18.00;;;;;;;11.10;70.23;96050.31;2076161;28;20189;-65
2024/02/27 14:25:51;;;;;;;35.25;18.52;;;;;;;10.81;70.67;96046.72;2080755;28;20189;-65
2024/02/27 14:26:52;;;;;;;32.35;18.52;;;;;;;10.71;71.09;96057.66;2080500;28;20303;-66
2024/02/27 14:27:54;;;;;;;33.28;18.63;;;;;;;10.68;71.83;96059.59;2078598;28;20212;-65
2024/02/27 14:28:56;;;;;;;30.55;18.27;;;;;;;10.43;71.90;96059.16;2079199;28;20382;-62
2024/02/27 14:30:00;;;;;;;33.78;17.95;;;;;;;10.51;71.98;96066.56;2080241;28;20201;-62
2024/02/27 14:31:02;;;;;;;32.58;18.20;;;;;;;10.48;72.45;96069.34;2081139;28;20258;-63
2024/02/27 14:32:04;;;;;;;30.15;18.17;;;;;;;10.41;72.61;96066.25;2080329;28;20224;-66
2024/02/27 14:33:05;;;;;;;28.83;17.10;;;;;;;10.25;73.20;96074.00;2080195;28;20200;-66
2024/02/27 14:34:07;;;;;;;33.38;17.50;;;;;;;10.12;73.50;96063.34;2077737;28;20208;-66
2024/02/27 14:35:09;;;;;;;27.48;15.55;;;;;;;10.29;73.44;96072.06;2073071;28;20251;-66
2024/02/27 14:36:11;;;;;;;27.10;16.25;;;;;;;10.32;72.97;96076.28;2078827;28;20228;-66
2024/02/27 14:37:12;;;;;;;28.77;16.17;;;;;;;10.01;73.43;96081.31;2080497;28;20221;-66
2024/02/27 14:41:52;;;;;;;31.65;16.00;;;;;;;9.98;74.51;96097.16;2081296;28;20564;-66
2024/02/27 14:42:53;;;;;;;33.33;16.85;;;;;;;10.00;74.52;96090.06;2072300;28;20200;-66
2024/02/27 14:47:48;;;;;;;31.42;17.10;;;;;;;9.50;74.95;96104.72;2083647;28;20552;-62
2024/02/27 14:48:52;;;;;;;30.73;17.80;;;;;;;9.50;75.74;96103.88;2080710;28;20866;-64
2024/02/27 14:54:26;;;;;;;33.05;18.35;;;;;;;9.27;76.20;96111.91;2103351;27;20572;-64
